createdAt,value
2023-04-09T00:00:47.399Z,30.84
2023-04-09T00:03:14.131Z,30.83
2023-04-09T00:05:41.027Z,30.84
2023-04-09T00:08:07.961Z,30.84
2023-04-09T00:10:34.648Z,30.84
2023-04-09T00:13:01.288Z,30.85
2023-04-09T00:15:31.195Z,30.84
2023-04-09T00:17:58.625Z,30.82
2023-04-09T00:20:25.408Z,30.85
2023-04-09T00:22:52.408Z,30.83
2023-04-09T00:25:20.065Z,30.85
2023-04-09T00:27:47.023Z,30.84
2023-04-09T00:30:13.736Z,30.84
2023-04-09T00:32:40.407Z,30.84
2023-04-09T00:35:07.311Z,30.84
2023-04-09T00:37:34.017Z,30.86
2023-04-09T00:40:01.022Z,30.85
2023-04-09T00:42:27.731Z,30.85
2023-04-09T00:44:54.351Z,30.82
2023-04-09T00:47:21.282Z,30.85
2023-04-09T00:49:48.322Z,30.83
2023-04-09T00:52:14.936Z,30.85
2023-04-09T00:54:41.615Z,30.85
2023-04-09T00:57:08.215Z,30.86
2023-04-09T00:59:35.153Z,30.85
2023-04-09T01:02:01.863Z,30.87
2023-04-09T01:04:28.523Z,30.85
2023-04-09T01:07:20.758Z,30.86
2023-04-09T01:09:54.619Z,30.90
2023-04-09T01:12:54.689Z,30.89
2023-04-09T01:15:30.433Z,30.91
2023-04-09T01:18:02.128Z,30.87
2023-04-09T01:20:41.498Z,30.85
2023-04-09T01:23:11.006Z,30.87
2023-04-09T01:26:02.670Z,30.85
2023-04-09T01:28:35.209Z,30.89
2023-04-09T01:31:04.321Z,30.87
2023-04-09T01:33:31.381Z,30.85
2023-04-09T01:35:58.021Z,30.87
2023-04-09T01:38:25.191Z,30.87
2023-04-09T01:40:51.881Z,30.86
2023-04-09T01:43:18.579Z,30.86
2023-04-09T01:45:45.546Z,30.86
2023-04-09T01:48:15.277Z,30.86
2023-04-09T01:50:41.919Z,30.86
2023-04-09T01:53:08.517Z,30.87
2023-04-09T01:55:35.454Z,30.89
2023-04-09T01:58:02.106Z,30.90
2023-04-09T02:00:32.587Z,30.86
2023-04-09T02:03:07.056Z,30.87
2023-04-09T02:05:37.322Z,30.90
2023-04-09T02:08:03.995Z,30.89
2023-04-09T02:10:31.560Z,30.90
2023-04-09T02:12:58.468Z,30.86
2023-04-09T02:15:25.146Z,30.87
2023-04-09T02:17:52.195Z,30.91
2023-04-09T02:20:18.982Z,30.87
2023-04-09T02:22:46.388Z,30.91
2023-04-09T02:25:13.170Z,30.88
2023-04-09T02:27:39.785Z,30.87
2023-04-09T02:30:07.104Z,30.87
2023-04-09T02:32:34.121Z,30.90
2023-04-09T02:35:00.921Z,30.89
2023-04-09T02:37:27.526Z,30.89
2023-04-09T02:39:54.192Z,30.89
2023-04-09T02:42:21.805Z,30.88
2023-04-09T02:44:48.447Z,30.90
2023-04-09T02:47:15.000Z,30.90
2023-04-09T02:49:41.634Z,30.88
2023-04-09T02:52:10.413Z,30.92
2023-04-09T02:54:37.086Z,30.91
2023-04-09T02:57:03.800Z,30.92
2023-04-09T02:59:30.429Z,30.90
2023-04-09T03:01:57.114Z,30.91
2023-04-09T03:04:23.962Z,30.92
2023-04-09T03:06:51.683Z,30.93
2023-04-09T03:09:18.280Z,30.97
2023-04-09T03:11:44.861Z,30.97
2023-04-09T03:14:11.491Z,31.02
2023-04-09T03:16:38.120Z,31.07
2023-04-09T03:19:04.761Z,31.08
2023-04-09T03:21:32.068Z,31.13
2023-04-09T03:23:58.746Z,31.14
2023-04-09T03:26:25.392Z,31.21
2023-04-09T03:28:52.157Z,31.25
2023-04-09T03:31:19.164Z,31.28
2023-04-09T03:33:45.878Z,31.24
2023-04-09T03:36:12.498Z,31.24
2023-04-09T03:38:39.173Z,31.26
2023-04-09T03:41:05.806Z,31.39
2023-04-09T03:43:32.448Z,31.40
2023-04-09T03:45:59.072Z,31.46
2023-04-09T03:48:25.652Z,31.50
2023-04-09T03:50:53.716Z,31.53
2023-04-09T03:53:20.300Z,31.60
2023-04-09T03:55:47.050Z,31.58
2023-04-09T03:58:13.662Z,31.69
2023-04-09T04:00:40.314Z,31.75
2023-04-09T04:03:07.217Z,31.77
2023-04-09T04:05:36.296Z,31.75
2023-04-09T04:08:03.054Z,31.80
2023-04-09T04:10:29.672Z,31.87
2023-04-09T04:12:56.268Z,31.87
2023-04-09T04:15:22.973Z,31.96
2023-04-09T04:17:49.635Z,31.99
2023-04-09T04:20:16.364Z,32.04
2023-04-09T04:22:43.018Z,32.16
2023-04-09T04:25:10.176Z,32.16
2023-04-09T04:27:37.202Z,32.19
2023-04-09T04:30:04.173Z,32.23
2023-04-09T04:32:30.824Z,32.28
2023-04-09T04:34:57.465Z,32.39
2023-04-09T04:37:24.169Z,32.40
2023-04-09T04:39:50.777Z,32.44
2023-04-09T04:42:17.418Z,32.48
2023-04-09T04:44:44.653Z,32.55
2023-04-09T04:47:11.267Z,32.54
2023-04-09T04:49:37.921Z,32.56
2023-04-09T04:52:04.664Z,32.57
2023-04-09T04:54:31.303Z,32.55
2023-04-09T04:56:58.039Z,32.63
2023-04-09T04:59:24.755Z,32.48
2023-04-09T05:01:51.422Z,32.28
2023-04-09T05:04:18.341Z,32.17
2023-04-09T05:06:45.005Z,31.94
2023-04-09T05:09:11.678Z,31.51
2023-04-09T05:11:38.276Z,31.23
2023-04-09T05:14:06.197Z,31.04
2023-04-09T05:16:33.276Z,30.78
2023-04-09T05:19:00.026Z,30.52
2023-04-09T05:21:27.670Z,30.22
2023-04-09T05:23:54.571Z,29.93
2023-04-09T05:26:21.825Z,29.59
2023-04-09T05:28:48.680Z,29.30
2023-04-09T05:31:15.751Z,29.05
2023-04-09T05:33:42.624Z,28.90
2023-04-09T05:36:09.283Z,28.74
2023-04-09T05:38:35.923Z,28.65
2023-04-09T05:41:02.546Z,28.66
2023-04-09T05:43:29.227Z,28.63
2023-04-09T05:45:55.998Z,28.60
2023-04-09T05:48:22.825Z,28.58
2023-04-09T05:50:55.468Z,28.58
2023-04-09T05:53:22.654Z,28.59
2023-04-09T05:55:49.416Z,28.67
2023-04-09T05:58:16.190Z,28.66
2023-04-09T06:00:42.799Z,28.74
2023-04-09T06:03:09.795Z,28.76
2023-04-09T06:05:36.842Z,28.85
2023-04-09T06:08:03.546Z,28.92
2023-04-09T06:10:32.531Z,29.00
2023-04-09T06:12:59.227Z,29.06
2023-04-09T06:15:26.479Z,29.15
2023-04-09T06:17:53.129Z,29.24
2023-04-09T06:20:19.867Z,29.26
2023-04-09T06:22:46.504Z,29.34
2023-04-09T06:25:13.340Z,29.44
2023-04-09T06:27:39.976Z,29.46
2023-04-09T06:30:07.377Z,29.53
2023-04-09T06:32:43.418Z,29.62
2023-04-09T06:35:17.999Z,29.72
2023-04-09T06:37:44.654Z,29.73
2023-04-09T06:40:11.785Z,29.82
2023-04-09T06:42:38.390Z,29.88
2023-04-09T06:45:08.612Z,29.92
2023-04-09T06:47:38.194Z,30.02
2023-04-09T06:50:05.695Z,30.10
2023-04-09T06:52:32.342Z,30.20
2023-04-09T06:54:58.960Z,30.26
2023-04-09T06:57:26.321Z,30.31
2023-04-09T06:59:52.937Z,30.36
2023-04-09T07:02:19.680Z,30.39
2023-04-09T07:04:47.491Z,30.45
2023-04-09T07:07:14.290Z,30.53
2023-04-09T07:09:41.027Z,30.56
2023-04-09T07:12:07.653Z,30.59
2023-04-09T07:14:34.477Z,30.64
2023-04-09T07:17:01.582Z,30.67
2023-04-09T07:19:28.228Z,30.70
2023-04-09T07:21:55.301Z,30.75
2023-04-09T07:24:21.985Z,30.78
2023-04-09T07:26:49.936Z,30.78
2023-04-09T07:29:17.906Z,30.81
2023-04-09T07:31:44.957Z,30.85
2023-04-09T07:34:11.593Z,30.82
2023-04-09T07:36:38.674Z,30.79
2023-04-09T07:39:05.345Z,30.77
2023-04-09T07:41:32.092Z,30.76
2023-04-09T07:43:59.293Z,30.72
2023-04-09T07:46:25.909Z,30.74
2023-04-09T07:48:52.956Z,30.74
2023-04-09T07:51:20.450Z,30.72
2023-04-09T07:53:47.200Z,30.71
2023-04-09T07:56:13.900Z,30.70
2023-04-09T07:58:40.634Z,30.69
2023-04-09T08:01:07.225Z,30.73
2023-04-09T08:03:34.164Z,30.71
2023-04-09T08:06:01.336Z,30.71
2023-04-09T08:08:28.016Z,30.73
2023-04-09T08:10:54.717Z,30.72
2023-04-09T08:13:23.989Z,30.75
2023-04-09T08:15:50.823Z,30.72
2023-04-09T08:18:17.481Z,30.75
2023-04-09T08:20:45.513Z,30.76
2023-04-09T08:23:12.621Z,30.79
2023-04-09T08:25:39.238Z,30.84
2023-04-09T08:28:06.488Z,30.79
2023-04-09T08:30:34.320Z,30.84
2023-04-09T08:33:01.960Z,30.85
2023-04-09T08:35:30.749Z,30.84
2023-04-09T08:37:57.645Z,30.82
2023-04-09T08:40:24.325Z,30.86
2023-04-09T08:42:58.254Z,30.89
2023-04-09T08:45:24.848Z,30.90
2023-04-09T08:47:51.806Z,30.89
2023-04-09T08:50:18.783Z,30.93
2023-04-09T08:52:46.423Z,30.94
2023-04-09T08:55:13.179Z,30.93
2023-04-09T08:57:40.073Z,30.94
2023-04-09T09:00:07.315Z,30.96
2023-04-09T09:02:34.152Z,30.98
2023-04-09T09:05:01.125Z,30.96
2023-04-09T09:07:28.391Z,30.98
2023-04-09T09:10:00.067Z,31.02
2023-04-09T09:12:38.533Z,31.04
2023-04-09T09:15:28.800Z,31.04
2023-04-09T09:17:59.961Z,31.06
2023-04-09T09:20:27.191Z,31.02
2023-04-09T09:22:55.745Z,31.01
2023-04-09T09:25:26.811Z,31.05
2023-04-09T09:27:53.890Z,31.10
2023-04-09T09:30:27.500Z,31.10
2023-04-09T09:33:05.881Z,31.11
2023-04-09T09:35:48.131Z,31.16
2023-04-09T09:38:16.011Z,31.14
2023-04-09T09:40:42.967Z,31.15
2023-04-09T09:43:09.650Z,31.12
2023-04-09T09:45:39.422Z,31.15
2023-04-09T09:48:06.386Z,31.19
2023-04-09T09:50:33.261Z,31.18
2023-04-09T09:53:03.323Z,31.19
2023-04-09T09:55:33.563Z,31.22
2023-04-09T09:58:06.184Z,31.21
2023-04-09T10:00:33.100Z,31.24
2023-04-09T10:03:03.754Z,31.25
2023-04-09T10:05:30.687Z,31.24
2023-04-09T10:07:57.953Z,31.29
2023-04-09T10:10:25.148Z,31.29
2023-04-09T10:12:52.148Z,31.28
2023-04-09T10:15:19.390Z,31.28
2023-04-09T10:17:46.723Z,31.25
2023-04-09T10:20:18.156Z,31.27
2023-04-09T10:22:48.850Z,31.30
2023-04-09T10:25:15.519Z,31.30
2023-04-09T10:27:46.098Z,31.30
2023-04-09T10:30:33.603Z,31.28
2023-04-09T10:33:26.301Z,31.31
2023-04-09T10:35:54.413Z,31.34
2023-04-09T10:38:35.671Z,31.34
2023-04-09T10:41:16.941Z,31.37
2023-04-09T10:43:43.635Z,31.34
2023-04-09T10:46:31.256Z,31.30
2023-04-09T10:49:20.789Z,31.34
2023-04-09T10:52:11.951Z,31.33
2023-04-09T10:54:48.488Z,31.32
2023-04-09T10:57:16.589Z,31.35
2023-04-09T10:59:53.622Z,31.35
2023-04-09T11:02:38.816Z,31.35
2023-04-09T11:05:18.161Z,31.34
2023-04-09T11:07:47.003Z,31.35
2023-04-09T11:10:13.591Z,31.32
2023-04-09T11:12:40.246Z,31.28
2023-04-09T11:15:15.349Z,31.31
2023-04-09T11:17:41.990Z,31.30
2023-04-09T11:20:08.921Z,31.29
2023-04-09T11:22:35.636Z,31.29
2023-04-09T11:25:02.980Z,31.33
2023-04-09T11:27:29.659Z,31.33
2023-04-09T11:29:56.587Z,31.33
2023-04-09T11:32:23.251Z,31.33
2023-04-09T11:34:52.745Z,31.31
2023-04-09T11:37:19.397Z,31.33
2023-04-09T11:39:46.220Z,31.33
2023-04-09T11:42:16.140Z,31.35
2023-04-09T11:44:44.897Z,31.42
2023-04-09T11:47:12.337Z,31.39
2023-04-09T11:49:39.270Z,31.34
2023-04-09T11:52:06.056Z,31.34
2023-04-09T11:54:33.629Z,31.33
2023-04-09T11:57:01.774Z,31.34
2023-04-09T11:59:28.376Z,31.34
2023-04-09T12:01:55.035Z,31.32
2023-04-09T12:04:21.729Z,31.33
2023-04-09T12:06:48.559Z,31.33
2023-04-09T12:09:16.165Z,31.34
2023-04-09T12:11:46.431Z,31.33
2023-04-09T12:14:13.996Z,31.34
2023-04-09T12:16:46.480Z,31.33
2023-04-09T12:19:13.521Z,31.33
2023-04-09T12:21:47.011Z,31.33
2023-04-09T12:24:14.389Z,31.37
2023-04-09T12:26:40.963Z,31.34
2023-04-09T12:29:07.608Z,31.35
2023-04-09T12:31:34.310Z,31.37
2023-04-09T12:34:01.022Z,31.35
2023-04-09T12:36:29.950Z,31.34
2023-04-09T12:38:56.761Z,31.34
2023-04-09T12:41:23.648Z,31.36
2023-04-09T12:43:51.028Z,31.36
2023-04-09T12:46:19.053Z,31.34
2023-04-09T12:48:48.727Z,31.33
2023-04-09T12:51:15.393Z,31.37
2023-04-09T12:53:42.019Z,31.35
2023-04-09T12:56:08.955Z,31.35
2023-04-09T12:58:35.696Z,31.39
2023-04-09T13:01:04.261Z,31.41
2023-04-09T13:03:31.154Z,31.40
2023-04-09T13:05:57.881Z,31.41
2023-04-09T13:08:24.531Z,31.41
2023-04-09T13:10:51.262Z,31.42
2023-04-09T13:13:17.964Z,31.42
2023-04-09T13:15:45.475Z,31.43
2023-04-09T13:18:12.889Z,31.46
2023-04-09T13:20:39.773Z,31.50
2023-04-09T13:23:06.462Z,31.51
2023-04-09T13:25:33.110Z,31.56
2023-04-09T13:27:59.778Z,31.55
2023-04-09T13:30:26.372Z,31.55
2023-04-09T13:32:53.140Z,31.58
2023-04-09T13:35:19.859Z,31.58
2023-04-09T13:37:46.513Z,31.59
2023-04-09T13:40:13.235Z,31.64
2023-04-09T13:42:39.869Z,31.64
2023-04-09T13:45:07.016Z,31.67
2023-04-09T13:47:33.676Z,31.67
2023-04-09T13:50:00.490Z,31.69
2023-04-09T13:52:29.649Z,31.65
2023-04-09T13:54:56.762Z,31.67
2023-04-09T13:57:23.389Z,31.71
2023-04-09T13:59:50.013Z,31.74
2023-04-09T14:02:18.225Z,31.74
2023-04-09T14:04:45.221Z,31.76
2023-04-09T14:07:11.947Z,31.77
2023-04-09T14:09:38.648Z,31.78
2023-04-09T14:12:05.438Z,31.77
2023-04-09T14:14:32.487Z,31.78
2023-04-09T14:17:01.737Z,31.77
2023-04-09T14:19:28.514Z,31.76
2023-04-09T14:21:55.806Z,31.73
2023-04-09T14:24:23.239Z,31.73
2023-04-09T14:26:51.475Z,31.74
2023-04-09T14:29:18.099Z,31.75
2023-04-09T14:31:44.789Z,31.77
2023-04-09T14:34:11.419Z,31.78
2023-04-09T14:36:38.048Z,31.78
2023-04-09T14:39:04.649Z,31.81
2023-04-09T14:41:34.149Z,31.80
2023-04-09T14:44:00.881Z,31.77
2023-04-09T14:46:27.677Z,31.75
2023-04-09T14:48:54.629Z,31.75
2023-04-09T14:51:21.648Z,31.74
2023-04-09T14:53:48.678Z,31.75
2023-04-09T14:56:15.413Z,31.75
2023-04-09T14:58:42.049Z,31.76
2023-04-09T15:01:09.081Z,31.74
2023-04-09T15:03:36.342Z,31.74
2023-04-09T15:06:03.305Z,31.74
2023-04-09T15:08:29.910Z,31.73
2023-04-09T15:10:58.755Z,31.72
2023-04-09T15:13:25.364Z,31.72
2023-04-09T15:15:52.061Z,31.71
2023-04-09T15:18:20.033Z,31.72
2023-04-09T15:20:48.558Z,31.73
2023-04-09T15:23:15.315Z,31.73
2023-04-09T15:25:41.968Z,31.72
2023-04-09T15:28:08.644Z,31.71
2023-04-09T15:30:35.774Z,31.71
2023-04-09T15:33:02.414Z,31.72
2023-04-09T15:35:29.463Z,31.72
2023-04-09T15:37:59.090Z,31.73
2023-04-09T15:40:25.840Z,31.74
2023-04-09T15:42:52.403Z,31.76
2023-04-09T15:45:19.105Z,31.74
2023-04-09T15:47:46.444Z,31.75
2023-04-09T15:50:13.548Z,31.76
2023-04-09T15:52:40.390Z,31.77
2023-04-09T15:55:07.283Z,31.79
2023-04-09T15:57:33.992Z,31.78
2023-04-09T16:00:00.683Z,31.79
2023-04-09T16:02:27.481Z,31.80
2023-04-09T16:04:54.284Z,31.82
2023-04-09T16:07:21.093Z,31.83
2023-04-09T16:09:47.811Z,31.84
2023-04-09T16:12:14.534Z,31.81
2023-04-09T16:14:41.246Z,31.83
2023-04-09T16:17:08.088Z,31.84
2023-04-09T16:19:34.693Z,31.84
2023-04-09T16:22:01.743Z,31.85
2023-04-09T16:24:28.607Z,31.86
2023-04-09T16:26:56.451Z,31.86
2023-04-09T16:29:23.130Z,31.89
2023-04-09T16:31:49.800Z,31.90
2023-04-09T16:34:16.602Z,31.90
2023-04-09T16:36:44.626Z,31.88
2023-04-09T16:39:11.311Z,31.89
2023-04-09T16:41:38.230Z,31.90
2023-04-09T16:44:04.854Z,31.91
2023-04-09T16:46:31.546Z,31.91
2023-04-09T16:48:58.180Z,31.93
2023-04-09T16:51:24.819Z,31.92
2023-04-09T16:53:53.983Z,31.93
2023-04-09T16:56:21.529Z,31.93
2023-04-09T16:58:48.434Z,31.96
2023-04-09T17:01:15.506Z,31.97
2023-04-09T17:03:42.262Z,31.98
2023-04-09T17:06:09.030Z,31.98
2023-04-09T17:08:35.868Z,32.00
2023-04-09T17:11:02.732Z,31.99
2023-04-09T17:13:30.324Z,32.00
2023-04-09T17:15:57.356Z,32.00
2023-04-09T17:18:24.158Z,32.01
2023-04-09T17:20:51.060Z,32.03
2023-04-09T17:23:17.756Z,32.01
2023-04-09T17:25:47.151Z,32.02
2023-04-09T17:28:13.888Z,32.03
2023-04-09T17:30:40.525Z,32.02
2023-04-09T17:33:07.237Z,32.05
2023-04-09T17:35:34.233Z,32.04
2023-04-09T17:38:01.715Z,32.06
2023-04-09T17:40:28.401Z,32.06
2023-04-09T17:42:55.610Z,32.07
2023-04-09T17:45:22.260Z,32.07
2023-04-09T17:47:51.030Z,32.07
2023-04-09T17:50:17.907Z,32.08
2023-04-09T17:52:44.566Z,32.11
2023-04-09T17:55:14.930Z,32.08
2023-04-09T17:57:41.806Z,32.07
2023-04-09T18:00:09.510Z,32.09
2023-04-09T18:02:36.728Z,32.11
2023-04-09T18:05:07.278Z,32.11
2023-04-09T18:07:34.211Z,32.12
2023-04-09T18:10:01.984Z,32.13
2023-04-09T18:12:28.701Z,32.14
2023-04-09T18:14:55.565Z,32.13
2023-04-09T18:17:22.260Z,32.13
2023-04-09T18:19:49.208Z,32.15
2023-04-09T18:22:16.619Z,32.16
2023-04-09T18:24:43.368Z,32.18
2023-04-09T18:27:10.167Z,32.17
2023-04-09T18:29:36.824Z,32.18
2023-04-09T18:32:03.453Z,32.18
2023-04-09T18:34:30.165Z,32.19
2023-04-09T18:36:57.062Z,32.20
2023-04-09T18:39:23.854Z,32.19
2023-04-09T18:41:50.725Z,32.20
2023-04-09T18:44:17.548Z,32.22
2023-04-09T18:46:44.371Z,32.22
2023-04-09T18:49:11.325Z,32.22
2023-04-09T18:51:38.065Z,32.23
2023-04-09T18:54:04.762Z,32.26
2023-04-09T18:56:31.437Z,32.26
2023-04-09T18:58:58.094Z,32.27
2023-04-09T19:01:24.869Z,32.27
2023-04-09T19:03:51.871Z,32.29
2023-04-09T19:06:19.354Z,32.29
2023-04-09T19:08:46.551Z,32.30
2023-04-09T19:11:13.900Z,32.30
2023-04-09T19:13:40.564Z,32.32
2023-04-09T19:16:09.369Z,32.32
2023-04-09T19:18:37.042Z,32.32
2023-04-09T19:21:04.085Z,32.31
2023-04-09T19:23:30.750Z,32.33
2023-04-09T19:25:57.580Z,32.36
2023-04-09T19:28:24.224Z,32.36
2023-04-09T19:30:52.433Z,32.36
2023-04-09T19:33:22.956Z,32.36
2023-04-09T19:35:49.952Z,32.41
2023-04-09T19:38:17.471Z,32.40
2023-04-09T19:40:44.481Z,32.41
2023-04-09T19:43:11.301Z,32.42
2023-04-09T19:45:38.665Z,32.43
2023-04-09T19:48:06.066Z,32.44
2023-04-09T19:50:37.884Z,32.43
2023-04-09T19:53:06.067Z,32.45
2023-04-09T19:55:36.063Z,32.46
2023-04-09T19:58:03.158Z,32.45
2023-04-09T20:00:29.794Z,32.47
2023-04-09T20:02:57.423Z,32.48
2023-04-09T20:05:24.234Z,32.50
2023-04-09T20:07:51.465Z,32.48
2023-04-09T20:10:18.245Z,32.50
2023-04-09T20:12:51.294Z,32.52
2023-04-09T20:15:20.069Z,32.53
2023-04-09T20:17:50.571Z,32.53
2023-04-09T20:20:19.782Z,32.56
2023-04-09T20:22:55.621Z,32.53
2023-04-09T20:25:22.963Z,32.54
2023-04-09T20:27:49.672Z,32.54
2023-04-09T20:30:17.032Z,32.56
2023-04-09T20:32:43.861Z,32.58
2023-04-09T20:35:12.778Z,32.59
2023-04-09T20:37:39.352Z,32.59
2023-04-09T20:40:06.808Z,32.65
2023-04-09T20:42:33.523Z,32.66
2023-04-09T20:45:01.775Z,32.63
2023-04-09T20:47:28.782Z,32.65
2023-04-09T20:49:59.718Z,32.66
2023-04-09T20:52:29.729Z,32.67
2023-04-09T20:54:57.073Z,32.67
2023-04-09T20:57:23.883Z,32.68
2023-04-09T20:59:52.975Z,32.70
2023-04-09T21:02:19.841Z,32.71
2023-04-09T21:04:46.707Z,32.72
2023-04-09T21:07:13.429Z,32.74
2023-04-09T21:09:40.341Z,32.72
2023-04-09T21:12:07.308Z,32.71
2023-04-09T21:14:33.936Z,32.76
2023-04-09T21:17:00.721Z,32.78
2023-04-09T21:19:27.536Z,32.78
2023-04-09T21:21:54.290Z,32.79
2023-04-09T21:24:20.931Z,32.80
2023-04-09T21:26:51.165Z,32.81
2023-04-09T21:29:20.388Z,32.81
2023-04-09T21:31:48.055Z,32.82
2023-04-09T21:34:14.695Z,32.86
2023-04-09T21:36:41.391Z,32.86
2023-04-09T21:39:08.005Z,32.88
2023-04-09T21:41:34.657Z,32.89
2023-04-09T21:44:07.979Z,32.87
2023-04-09T21:46:36.791Z,32.88
2023-04-09T21:49:04.012Z,32.90
2023-04-09T21:51:31.475Z,32.89
2023-04-09T21:54:08.664Z,32.92
2023-04-09T21:56:35.874Z,32.93
2023-04-09T21:59:02.790Z,32.92
2023-04-09T22:01:31.493Z,32.93
2023-04-09T22:03:59.152Z,32.94
2023-04-09T22:06:27.304Z,32.99
2023-04-09T22:08:56.753Z,32.98
2023-04-09T22:11:26.845Z,32.99
2023-04-09T22:13:53.845Z,33.00
2023-04-09T22:16:20.610Z,33.01
2023-04-09T22:18:47.435Z,33.04
2023-04-09T22:21:17.482Z,33.02
2023-04-09T22:23:44.154Z,33.04
2023-04-09T22:26:10.836Z,33.05
2023-04-09T22:28:38.511Z,33.08
2023-04-09T22:31:05.906Z,33.08
2023-04-09T22:33:32.876Z,33.09
2023-04-09T22:35:59.780Z,33.06
2023-04-09T22:38:26.532Z,33.11
2023-04-09T22:40:53.108Z,33.10
2023-04-09T22:43:19.866Z,33.12
2023-04-09T22:45:51.623Z,33.14
2023-04-09T22:48:18.797Z,33.14
2023-04-09T22:50:45.995Z,33.16
2023-04-09T22:53:12.873Z,33.19
2023-04-09T22:55:39.712Z,33.17
2023-04-09T22:58:06.452Z,33.18
2023-04-09T23:00:33.149Z,33.18
2023-04-09T23:03:00.088Z,33.18
2023-04-09T23:05:26.874Z,33.18
2023-04-09T23:07:53.623Z,33.20
2023-04-09T23:10:20.395Z,33.19
2023-04-09T23:12:46.988Z,33.22
2023-04-09T23:15:13.617Z,33.19
2023-04-09T23:17:42.153Z,33.23
2023-04-09T23:20:11.322Z,33.23
2023-04-09T23:22:37.944Z,33.25
2023-04-09T23:25:04.784Z,33.24
2023-04-09T23:27:31.482Z,33.27
2023-04-09T23:29:58.233Z,33.27
2023-04-09T23:32:25.048Z,33.27
2023-04-09T23:34:51.739Z,33.29
2023-04-09T23:37:19.089Z,33.29
2023-04-09T23:39:48.821Z,33.30
2023-04-09T23:42:15.657Z,33.29
2023-04-09T23:44:43.944Z,33.29
2023-04-09T23:47:11.263Z,33.32
2023-04-09T23:49:38.137Z,33.30
2023-04-09T23:52:04.967Z,33.32
2023-04-09T23:54:32.719Z,33.32
2023-04-09T23:56:59.722Z,33.34
2023-04-09T23:59:26.429Z,33.34
